sensor_id;sensor_type;location;lat;lon;timestamp;pressure;altitude;pressure_sealevel;temperature;humidity
13765;BME280;6953;48.810;9.204;2023-05-17T00:00:02;99165.00;;;8.71;83.54
13765;BME280;6953;48.810;9.204;2023-05-17T00:02:31;99147.13;;;8.61;84.05
13765;BME280;6953;48.810;9.204;2023-05-17T00:04:56;98906.22;;;7.14;84.74
13765;BME280;6953;48.810;9.204;2023-05-17T00:07:21;99143.88;;;8.54;84.67
13765;BME280;6953;48.810;9.204;2023-05-17T00:09:47;98868.69;;;6.94;84.44
13765;BME280;6953;48.810;9.204;2023-05-17T00:12:12;99189.03;;;8.59;84.55
13765;BME280;6953;48.810;9.204;2023-05-17T00:14:37;99155.03;;;8.59;84.29
13765;BME280;6953;48.810;9.204;2023-05-17T00:17:03;99159.53;;;8.56;84.97
13765;BME280;6953;48.810;9.204;2023-05-17T00:19:28;99086.28;;;8.10;84.91
13765;BME280;6953;48.810;9.204;2023-05-17T00:21:53;99156.91;;;8.56;84.66
13765;BME280;6953;48.810;9.204;2023-05-17T00:24:18;99155.13;;;8.56;84.68
13765;BME280;6953;48.810;9.204;2023-05-17T00:26:44;99199.66;;;8.55;84.95
13765;BME280;6953;48.810;9.204;2023-05-17T00:29:09;98943.38;;;7.20;85.00
13765;BME280;6953;48.810;9.204;2023-05-17T00:31:35;98856.53;;;6.70;84.44
13765;BME280;6953;48.810;9.204;2023-05-17T00:34:00;98899.06;;;6.95;84.70
13765;BME280;6953;48.810;9.204;2023-05-17T00:36:25;98905.97;;;6.97;85.34
13765;BME280;6953;48.810;9.204;2023-05-17T00:38:51;99223.19;;;8.55;86.01
13765;BME280;6953;48.810;9.204;2023-05-17T00:41:16;99180.84;;;8.45;86.25
13765;BME280;6953;48.810;9.204;2023-05-17T00:43:42;98965.03;;;6.98;86.63
13765;BME280;6953;48.810;9.204;2023-05-17T00:46:07;99189.41;;;8.49;87.86
13765;BME280;6953;48.810;9.204;2023-05-17T00:48:32;99066.59;;;7.77;88.12
13765;BME280;6953;48.810;9.204;2023-05-17T00:50:58;99184.41;;;8.43;88.14
13765;BME280;6953;48.810;9.204;2023-05-17T00:53:24;99187.66;;;8.49;88.23
13765;BME280;6953;48.810;9.204;2023-05-17T00:55:50;99028.06;;;7.59;88.16
13765;BME280;6953;48.810;9.204;2023-05-17T00:58:17;99185.50;;;8.60;87.51
13765;BME280;6953;48.810;9.204;2023-05-17T01:00:43;99193.91;;;8.68;86.77
13765;BME280;6953;48.810;9.204;2023-05-17T01:03:08;99193.00;;;8.69;87.08
13765;BME280;6953;48.810;9.204;2023-05-17T01:05:34;98889.63;;;6.92;87.53
13765;BME280;6953;48.810;9.204;2023-05-17T01:07:59;99189.75;;;8.63;87.20
13765;BME280;6953;48.810;9.204;2023-05-17T01:10:43;99178.75;;;8.55;88.23
13765;BME280;6953;48.810;9.204;2023-05-17T01:13:18;99124.25;;;8.20;88.57
13765;BME280;6953;48.810;9.204;2023-05-17T01:16:00;99182.53;;;8.46;89.16
13765;BME280;6953;48.810;9.204;2023-05-17T01:18:37;99199.63;;;8.32;89.20
13765;BME280;6953;48.810;9.204;2023-05-17T01:21:16;99077.84;;;7.79;88.91
13765;BME280;6953;48.810;9.204;2023-05-17T01:23:58;99242.63;;;8.48;88.99
13765;BME280;6953;48.810;9.204;2023-05-17T01:26:40;99239.94;;;8.49;89.23
13765;BME280;6953;48.810;9.204;2023-05-17T01:29:07;99206.00;;;8.48;89.30
13765;BME280;6953;48.810;9.204;2023-05-17T01:31:35;99201.69;;;8.47;89.53
13765;BME280;6953;48.810;9.204;2023-05-17T01:34:00;98937.56;;;6.88;89.40
13765;BME280;6953;48.810;9.204;2023-05-17T01:36:26;98982.69;;;7.15;90.10
13765;BME280;6953;48.810;9.204;2023-05-17T01:38:51;99206.84;;;8.48;90.15
13765;BME280;6953;48.810;9.204;2023-05-17T01:41:26;98909.16;;;6.81;89.12
13765;BME280;6953;48.810;9.204;2023-05-17T01:46:41;99208.97;;;8.62;88.76
13765;BME280;6953;48.810;9.204;2023-05-17T01:49:29;99204.66;;;8.61;89.58
13765;BME280;6953;48.810;9.204;2023-05-17T01:52:15;99205.53;;;8.61;89.56
13765;BME280;6953;48.810;9.204;2023-05-17T01:54:47;98959.34;;;7.12;89.53
13765;BME280;6953;48.810;9.204;2023-05-17T01:57:18;99220.41;;;8.59;90.39
13765;BME280;6953;48.810;9.204;2023-05-17T01:59:45;99214.19;;;8.39;90.72
13765;BME280;6953;48.810;9.204;2023-05-17T02:02:11;99245.13;;;8.51;90.86
13765;BME280;6953;48.810;9.204;2023-05-17T02:04:38;98979.72;;;7.01;91.28
13765;BME280;6953;48.810;9.204;2023-05-17T02:07:03;99138.22;;;7.95;91.59
13765;BME280;6953;48.810;9.204;2023-05-17T02:09:28;99210.81;;;8.35;91.76
13765;BME280;6953;48.810;9.204;2023-05-17T02:11:55;99228.03;;;8.41;92.59
13765;BME280;6953;48.810;9.204;2023-05-17T02:14:20;99180.28;;;8.12;92.67
13765;BME280;6953;48.810;9.204;2023-05-17T02:16:45;99213.03;;;8.23;92.57
13765;BME280;6953;48.810;9.204;2023-05-17T02:19:11;99225.34;;;8.20;93.13
13765;BME280;6953;48.810;9.204;2023-05-17T02:21:37;99232.22;;;8.22;93.37
13765;BME280;6953;48.810;9.204;2023-05-17T02:24:03;99238.41;;;8.20;93.21
13765;BME280;6953;48.810;9.204;2023-05-17T02:26:29;99223.25;;;8.05;93.50
13765;BME280;6953;48.810;9.204;2023-05-17T02:28:55;99239.69;;;8.07;93.65
13765;BME280;6953;48.810;9.204;2023-05-17T02:31:21;99247.66;;;8.04;94.20
13765;BME280;6953;48.810;9.204;2023-05-17T02:33:46;99240.66;;;8.04;93.53
13765;BME280;6953;48.810;9.204;2023-05-17T02:36:11;99161.22;;;7.59;93.96
13765;BME280;6953;48.810;9.204;2023-05-17T02:38:37;99240.59;;;8.06;93.45
13765;BME280;6953;48.810;9.204;2023-05-17T02:41:03;99161.34;;;7.56;92.79
13765;BME280;6953;48.810;9.204;2023-05-17T02:43:28;99269.59;;;7.98;93.09
13765;BME280;6953;48.810;9.204;2023-05-17T02:45:54;99270.47;;;7.99;93.25
13765;BME280;6953;48.810;9.204;2023-05-17T02:48:19;99100.88;;;7.18;93.33
13765;BME280;6953;48.810;9.204;2023-05-17T02:50:44;99212.84;;;7.77;92.59
13765;BME280;6953;48.810;9.204;2023-05-17T02:53:10;98985.41;;;6.35;92.56
13765;BME280;6953;48.810;9.204;2023-05-17T02:55:35;99162.19;;;7.31;93.29
13765;BME280;6953;48.810;9.204;2023-05-17T02:58:00;99065.34;;;6.62;94.48
13765;BME280;6953;48.810;9.204;2023-05-17T03:00:26;99055.75;;;6.63;94.27
13765;BME280;6953;48.810;9.204;2023-05-17T03:02:51;99246.22;;;7.69;93.73
13765;BME280;6953;48.810;9.204;2023-05-17T03:05:17;98921.34;;;5.74;93.99
13765;BME280;6953;48.810;9.204;2023-05-17T03:07:42;99026.38;;;6.30;94.47
13765;BME280;6953;48.810;9.204;2023-05-17T03:10:07;99018.47;;;6.05;94.20
13765;BME280;6953;48.810;9.204;2023-05-17T03:12:33;99036.53;;;6.39;94.88
13765;BME280;6953;48.810;9.204;2023-05-17T03:14:58;99247.38;;;7.61;94.92
13765;BME280;6953;48.810;9.204;2023-05-17T03:17:23;98976.06;;;6.01;94.01
13765;BME280;6953;48.810;9.204;2023-05-17T03:19:49;99139.00;;;6.96;94.66
13765;BME280;6953;48.810;9.204;2023-05-17T03:22:14;98961.56;;;5.93;94.19
13765;BME280;6953;48.810;9.204;2023-05-17T03:24:39;99224.41;;;7.44;93.69
13765;BME280;6953;48.810;9.204;2023-05-17T03:27:05;99257.81;;;7.61;94.08
13765;BME280;6953;48.810;9.204;2023-05-17T03:29:30;99000.31;;;6.02;94.47
13765;BME280;6953;48.810;9.204;2023-05-17T03:31:55;99259.13;;;7.46;94.72
13765;BME280;6953;48.810;9.204;2023-05-17T03:34:21;99074.22;;;6.28;95.30
13765;BME280;6953;48.810;9.204;2023-05-17T03:36:46;99223.69;;;7.12;95.49
13765;BME280;6953;48.810;9.204;2023-05-17T03:39:11;99268.72;;;7.18;96.22
13765;BME280;6953;48.810;9.204;2023-05-17T03:41:37;99219.84;;;6.96;96.67
13765;BME280;6953;48.810;9.204;2023-05-17T03:44:03;99261.09;;;7.13;98.07
13765;BME280;6953;48.810;9.204;2023-05-17T03:46:28;99270.56;;;7.15;98.12
13765;BME280;6953;48.810;9.204;2023-05-17T03:48:53;99276.13;;;7.32;98.07
13765;BME280;6953;48.810;9.204;2023-05-17T03:51:19;99298.47;;;7.40;97.51
13765;BME280;6953;48.810;9.204;2023-05-17T03:53:44;99165.75;;;6.74;97.50
13765;BME280;6953;48.810;9.204;2023-05-17T03:56:09;99274.56;;;7.26;97.42
13765;BME280;6953;48.810;9.204;2023-05-17T03:58:35;99283.00;;;7.34;98.32
13765;BME280;6953;48.810;9.204;2023-05-17T04:01:01;99283.59;;;7.44;97.62
13765;BME280;6953;48.810;9.204;2023-05-17T04:03:26;99279.94;;;7.49;98.41
13765;BME280;6953;48.810;9.204;2023-05-17T04:05:52;99302.53;;;7.50;97.40
13765;BME280;6953;48.810;9.204;2023-05-17T04:08:17;99290.84;;;7.62;97.50
13765;BME280;6953;48.810;9.204;2023-05-17T04:10:42;99292.41;;;7.67;97.11
13765;BME280;6953;48.810;9.204;2023-05-17T04:13:08;99287.19;;;7.67;97.23
13765;BME280;6953;48.810;9.204;2023-05-17T04:15:34;99286.75;;;7.81;97.15
13765;BME280;6953;48.810;9.204;2023-05-17T04:18:00;99178.94;;;7.24;97.65
13765;BME280;6953;48.810;9.204;2023-05-17T04:20:25;99242.94;;;7.89;97.50
13765;BME280;6953;48.810;9.204;2023-05-17T04:23:02;99304.41;;;8.50;96.57
13765;BME280;6953;48.810;9.204;2023-05-17T04:25:28;99265.78;;;8.34;95.49
13765;BME280;6953;48.810;9.204;2023-05-17T04:27:53;99338.78;;;8.89;93.45
13765;BME280;6953;48.810;9.204;2023-05-17T04:30:18;99318.44;;;8.97;92.12
13765;BME280;6953;48.810;9.204;2023-05-17T04:32:46;99094.75;;;7.69;91.06
13765;BME280;6953;48.810;9.204;2023-05-17T04:35:11;99319.00;;;9.05;89.93
13765;BME280;6953;48.810;9.204;2023-05-17T04:37:36;99006.78;;;7.22;89.07
13765;BME280;6953;48.810;9.204;2023-05-17T04:40:06;99075.59;;;7.69;89.60
13765;BME280;6953;48.810;9.204;2023-05-17T04:42:31;99244.28;;;8.73;89.61
13765;BME280;6953;48.810;9.204;2023-05-17T04:44:57;99336.53;;;9.26;89.14
13765;BME280;6953;48.810;9.204;2023-05-17T04:47:22;99334.53;;;9.32;88.84
13765;BME280;6953;48.810;9.204;2023-05-17T04:49:47;99333.31;;;9.40;88.26
13765;BME280;6953;48.810;9.204;2023-05-17T04:52:15;99331.88;;;9.55;88.35
13765;BME280;6953;48.810;9.204;2023-05-17T04:54:40;99326.00;;;9.71;87.81
13765;BME280;6953;48.810;9.204;2023-05-17T04:57:06;99098.69;;;8.51;86.37
13765;BME280;6953;48.810;9.204;2023-05-17T04:59:31;99186.09;;;9.13;85.47
13765;BME280;6953;48.810;9.204;2023-05-17T05:01:56;99267.47;;;9.72;83.78
13765;BME280;6953;48.810;9.204;2023-05-17T05:04:22;99132.94;;;9.11;83.72
13765;BME280;6953;48.810;9.204;2023-05-17T05:06:48;99349.22;;;10.44;82.54
13765;BME280;6953;48.810;9.204;2023-05-17T05:09:14;99327.66;;;10.38;81.76
13765;BME280;6953;48.810;9.204;2023-05-17T05:11:39;99354.81;;;10.57;81.69
13765;BME280;6953;48.810;9.204;2023-05-17T05:14:04;99380.78;;;10.63;81.71
13765;BME280;6953;48.810;9.204;2023-05-17T05:16:30;99361.16;;;10.71;81.49
13765;BME280;6953;48.810;9.204;2023-05-17T05:18:55;99297.69;;;10.43;80.59
13765;BME280;6953;48.810;9.204;2023-05-17T05:21:20;99213.78;;;10.02;80.12
13765;BME280;6953;48.810;9.204;2023-05-17T05:23:46;99124.13;;;9.54;79.79
13765;BME280;6953;48.810;9.204;2023-05-17T05:26:11;99361.47;;;11.04;80.24
13765;BME280;6953;48.810;9.204;2023-05-17T05:28:36;99354.22;;;11.10;79.30
13765;BME280;6953;48.810;9.204;2023-05-17T05:31:02;99373.19;;;11.35;78.67
13765;BME280;6953;48.810;9.204;2023-05-17T05:33:27;99359.25;;;11.71;78.20
13765;BME280;6953;48.810;9.204;2023-05-17T05:35:52;99191.59;;;11.24;74.80
13765;BME280;6953;48.810;9.204;2023-05-17T05:38:18;99392.44;;;12.63;72.25
13765;BME280;6953;48.810;9.204;2023-05-17T05:40:45;99352.97;;;12.97;70.75
13765;BME280;6953;48.810;9.204;2023-05-17T05:43:12;99356.28;;;13.33;69.43
13765;BME280;6953;48.810;9.204;2023-05-17T05:45:37;99185.56;;;12.74;67.00
13765;BME280;6953;48.810;9.204;2023-05-17T05:48:05;99204.56;;;13.13;65.45
13765;BME280;6953;48.810;9.204;2023-05-17T05:50:33;99145.72;;;13.13;65.98
13765;BME280;6953;48.810;9.204;2023-05-17T05:52:58;99343.28;;;14.53;63.21
13765;BME280;6953;48.810;9.204;2023-05-17T05:55:25;99390.75;;;14.84;62.27
13765;BME280;6953;48.810;9.204;2023-05-17T05:57:50;99158.78;;;13.90;60.63
13765;BME280;6953;48.810;9.204;2023-05-17T06:00:16;99408.63;;;15.52;59.41
13765;BME280;6953;48.810;9.204;2023-05-17T06:02:42;99390.13;;;15.79;58.12
13765;BME280;6953;48.810;9.204;2023-05-17T06:05:08;99339.69;;;15.68;56.80
13765;BME280;6953;48.810;9.204;2023-05-17T06:07:33;99416.75;;;15.90;56.48
13765;BME280;6953;48.810;9.204;2023-05-17T06:09:58;99400.03;;;15.90;55.40
13765;BME280;6953;48.810;9.204;2023-05-17T06:12:24;99402.97;;;15.71;56.53
13765;BME280;6953;48.810;9.204;2023-05-17T06:14:49;99346.72;;;15.82;57.10
13765;BME280;6953;48.810;9.204;2023-05-17T06:17:15;99346.91;;;16.33;54.24
13765;BME280;6953;48.810;9.204;2023-05-17T06:19:40;99415.94;;;17.09;53.03
13765;BME280;6953;48.810;9.204;2023-05-17T06:22:05;99425.13;;;17.43;52.40
13765;BME280;6953;48.810;9.204;2023-05-17T06:24:31;99219.31;;;16.78;50.78
13765;BME280;6953;48.810;9.204;2023-05-17T06:26:56;99222.72;;;17.53;48.84
13765;BME280;6953;48.810;9.204;2023-05-17T06:29:22;99205.00;;;18.00;46.54
13765;BME280;6953;48.810;9.204;2023-05-17T06:31:48;99413.34;;;20.26;42.23
13765;BME280;6953;48.810;9.204;2023-05-17T06:34:13;99432.91;;;20.58;40.86
13765;BME280;6953;48.810;9.204;2023-05-17T06:36:38;99220.91;;;20.00;38.98
13765;BME280;6953;48.810;9.204;2023-05-17T06:39:04;99425.91;;;22.01;37.36
13765;BME280;6953;48.810;9.204;2023-05-17T06:41:29;99373.06;;;22.23;35.39
13765;BME280;6953;48.810;9.204;2023-05-17T06:43:54;99432.25;;;23.35;33.31
13765;BME280;6953;48.810;9.204;2023-05-17T06:46:20;99433.81;;;24.12;32.19
13765;BME280;6953;48.810;9.204;2023-05-17T06:48:45;99457.59;;;24.61;31.08
13765;BME280;6953;48.810;9.204;2023-05-17T06:51:10;99221.28;;;23.74;30.51
13765;BME280;6953;48.810;9.204;2023-05-17T06:53:36;99262.28;;;23.93;29.82
13765;BME280;6953;48.810;9.204;2023-05-17T06:56:01;99260.31;;;23.86;29.23
13765;BME280;6953;48.810;9.204;2023-05-17T06:58:26;99439.66;;;24.79;30.48
13765;BME280;6953;48.810;9.204;2023-05-17T07:00:52;99406.88;;;24.31;30.79
13765;BME280;6953;48.810;9.204;2023-05-17T07:03:17;99440.19;;;24.02;31.37
13765;BME280;6953;48.810;9.204;2023-05-17T07:05:42;99306.84;;;22.93;31.60
13765;BME280;6953;48.810;9.204;2023-05-17T07:08:08;99293.47;;;22.65;31.87
13765;BME280;6953;48.810;9.204;2023-05-17T07:10:33;99424.38;;;23.15;32.59
13765;BME280;6953;48.810;9.204;2023-05-17T07:12:58;99437.22;;;23.12;32.48
13765;BME280;6953;48.810;9.204;2023-05-17T07:15:24;99226.97;;;22.13;32.51
13765;BME280;6953;48.810;9.204;2023-05-17T07:17:49;99429.56;;;23.26;32.32
13765;BME280;6953;48.810;9.204;2023-05-17T07:20:15;99397.25;;;23.56;32.26
13765;BME280;6953;48.810;9.204;2023-05-17T07:22:40;99452.16;;;24.70;30.63
13765;BME280;6953;48.810;9.204;2023-05-17T07:25:06;99441.97;;;25.78;29.61
13765;BME280;6953;48.810;9.204;2023-05-17T07:27:32;99444.75;;;26.45;27.36
13765;BME280;6953;48.810;9.204;2023-05-17T07:29:57;99474.47;;;27.18;25.89
13765;BME280;6953;48.810;9.204;2023-05-17T07:32:23;99335.91;;;26.47;26.22
13765;BME280;6953;48.810;9.204;2023-05-17T07:34:48;99466.81;;;27.71;25.58
13765;BME280;6953;48.810;9.204;2023-05-17T07:37:13;99461.69;;;28.08;25.69
13765;BME280;6953;48.810;9.204;2023-05-17T07:39:39;99451.38;;;27.24;25.95
13765;BME280;6953;48.810;9.204;2023-05-17T07:42:04;99455.97;;;27.31;26.15
13765;BME280;6953;48.810;9.204;2023-05-17T07:44:30;99460.53;;;27.39;26.04
13765;BME280;6953;48.810;9.204;2023-05-17T07:46:55;99459.34;;;27.41;25.89
13765;BME280;6953;48.810;9.204;2023-05-17T07:49:22;99284.09;;;27.01;25.23
13765;BME280;6953;48.810;9.204;2023-05-17T07:51:48;99461.69;;;27.60;25.29
13765;BME280;6953;48.810;9.204;2023-05-17T07:54:23;99453.09;;;27.33;25.27
13765;BME280;6953;48.810;9.204;2023-05-17T07:56:49;99438.22;;;26.22;26.32
13765;BME280;6953;48.810;9.204;2023-05-17T07:59:14;99451.31;;;26.17;27.45
13765;BME280;6953;48.810;9.204;2023-05-17T08:01:40;99384.34;;;25.81;27.82
13765;BME280;6953;48.810;9.204;2023-05-17T08:04:05;99450.53;;;26.33;27.19
13765;BME280;6953;48.810;9.204;2023-05-17T08:06:30;99450.50;;;25.91;27.82
13765;BME280;6953;48.810;9.204;2023-05-17T08:08:56;99349.59;;;25.36;27.51
13765;BME280;6953;48.810;9.204;2023-05-17T08:11:21;99459.94;;;25.95;27.95
13765;BME280;6953;48.810;9.204;2023-05-17T08:13:46;99383.75;;;25.95;26.57
13765;BME280;6953;48.810;9.204;2023-05-17T08:16:12;99373.88;;;25.78;27.50
13765;BME280;6953;48.810;9.204;2023-05-17T08:18:37;99367.75;;;26.68;25.73
13765;BME280;6953;48.810;9.204;2023-05-17T08:21:02;99282.34;;;27.56;25.14
13765;BME280;6953;48.810;9.204;2023-05-17T08:23:28;99454.97;;;28.96;23.14
13765;BME280;6953;48.810;9.204;2023-05-17T08:25:54;99284.44;;;27.30;24.05
13765;BME280;6953;48.810;9.204;2023-05-17T08:28:19;99463.56;;;27.67;24.94
13765;BME280;6953;48.810;9.204;2023-05-17T08:30:44;99394.34;;;26.30;26.18
13765;BME280;6953;48.810;9.204;2023-05-17T08:33:10;99440.00;;;26.06;28.03
13765;BME280;6953;48.810;9.204;2023-05-17T08:35:36;99437.09;;;27.31;25.40
13765;BME280;6953;48.810;9.204;2023-05-17T08:38:02;99466.16;;;29.16;23.82
13765;BME280;6953;48.810;9.204;2023-05-17T08:40:27;99466.38;;;30.33;22.64
13765;BME280;6953;48.810;9.204;2023-05-17T08:42:53;99286.38;;;30.21;21.07
13765;BME280;6953;48.810;9.204;2023-05-17T08:45:18;99416.25;;;31.22;20.75
13765;BME280;6953;48.810;9.204;2023-05-17T08:47:44;99446.13;;;30.93;20.52
13765;BME280;6953;48.810;9.204;2023-05-17T08:50:11;99341.88;;;28.77;22.64
13765;BME280;6953;48.810;9.204;2023-05-17T08:52:38;99463.50;;;29.08;23.40
13765;BME280;6953;48.810;9.204;2023-05-17T08:55:06;99369.56;;;29.69;22.07
13765;BME280;6953;48.810;9.204;2023-05-17T08:57:33;99436.19;;;30.07;21.89
13765;BME280;6953;48.810;9.204;2023-05-17T09:00:00;99455.00;;;31.01;20.53
13765;BME280;6953;48.810;9.204;2023-05-17T09:02:36;99407.63;;;31.81;19.43
13765;BME280;6953;48.810;9.204;2023-05-17T09:05:02;99472.84;;;31.25;21.03
13765;BME280;6953;48.810;9.204;2023-05-17T09:07:29;99245.69;;;28.16;22.59
13765;BME280;6953;48.810;9.204;2023-05-17T09:09:54;99414.13;;;27.99;23.43
13765;BME280;6953;48.810;9.204;2023-05-17T09:12:20;99362.56;;;26.33;24.84
13765;BME280;6953;48.810;9.204;2023-05-17T09:14:47;99449.94;;;25.28;27.01
13765;BME280;6953;48.810;9.204;2023-05-17T09:17:17;99426.31;;;24.69;28.65
13765;BME280;6953;48.810;9.204;2023-05-17T09:19:44;99236.50;;;24.44;26.95
13765;BME280;6953;48.810;9.204;2023-05-17T09:22:14;99445.47;;;26.30;25.58
13765;BME280;6953;48.810;9.204;2023-05-17T09:24:42;99418.63;;;26.87;25.19
13765;BME280;6953;48.810;9.204;2023-05-17T09:27:08;99445.69;;;26.36;24.76
13765;BME280;6953;48.810;9.204;2023-05-17T09:29:34;99440.28;;;27.19;25.75
13765;BME280;6953;48.810;9.204;2023-05-17T09:32:15;99466.41;;;29.06;22.68
13765;BME280;6953;48.810;9.204;2023-05-17T09:34:42;99399.84;;;28.37;23.45
13765;BME280;6953;48.810;9.204;2023-05-17T09:37:17;99472.63;;;30.48;21.44
13765;BME280;6953;48.810;9.204;2023-05-17T09:39:45;99471.47;;;31.00;20.30
13765;BME280;6953;48.810;9.204;2023-05-17T09:42:11;99333.03;;;27.92;22.68
13765;BME280;6953;48.810;9.204;2023-05-17T09:44:51;99413.69;;;27.79;22.00
13765;BME280;6953;48.810;9.204;2023-05-17T09:47:30;99324.34;;;28.13;20.92
13765;BME280;6953;48.810;9.204;2023-05-17T09:49:59;99496.91;;;28.76;21.92
13765;BME280;6953;48.810;9.204;2023-05-17T09:52:27;99417.00;;;27.97;22.96
13765;BME280;6953;48.810;9.204;2023-05-17T09:54:59;99474.63;;;30.54;20.42
13765;BME280;6953;48.810;9.204;2023-05-17T09:57:27;99488.63;;;33.40;17.14
13765;BME280;6953;48.810;9.204;2023-05-17T09:59:56;99510.19;;;32.95;16.64
13765;BME280;6953;48.810;9.204;2023-05-17T10:02:27;99319.22;;;31.03;18.02
13765;BME280;6953;48.810;9.204;2023-05-17T10:04:55;99339.88;;;30.48;18.44
13765;BME280;6953;48.810;9.204;2023-05-17T10:07:23;99468.56;;;29.78;18.88
13765;BME280;6953;48.810;9.204;2023-05-17T10:09:50;99485.06;;;30.28;20.03
13765;BME280;6953;48.810;9.204;2023-05-17T10:12:17;99478.38;;;29.65;20.60
13765;BME280;6953;48.810;9.204;2023-05-17T10:14:44;99478.44;;;27.79;22.58
13765;BME280;6953;48.810;9.204;2023-05-17T10:17:10;99452.22;;;26.00;23.98
13765;BME280;6953;48.810;9.204;2023-05-17T10:19:36;99475.22;;;25.17;26.03
13765;BME280;6953;48.810;9.204;2023-05-17T10:22:02;99431.84;;;24.68;26.68
13765;BME280;6953;48.810;9.204;2023-05-17T10:24:29;99462.53;;;24.65;26.97
13765;BME280;6953;48.810;9.204;2023-05-17T10:26:55;99256.63;;;23.60;26.36
13765;BME280;6953;48.810;9.204;2023-05-17T10:29:22;99412.13;;;24.23;26.41
13765;BME280;6953;48.810;9.204;2023-05-17T10:31:48;99239.69;;;23.59;26.50
13765;BME280;6953;48.810;9.204;2023-05-17T10:34:15;99442.19;;;26.10;26.01
13765;BME280;6953;48.810;9.204;2023-05-17T10:36:45;99250.16;;;26.11;24.10
13765;BME280;6953;48.810;9.204;2023-05-17T10:39:11;99399.00;;;27.18;23.57
13765;BME280;6953;48.810;9.204;2023-05-17T10:41:40;99459.22;;;26.85;23.79
13765;BME280;6953;48.810;9.204;2023-05-17T10:44:07;99260.81;;;25.46;24.48
13765;BME280;6953;48.810;9.204;2023-05-17T10:46:35;99447.06;;;26.07;24.82
13765;BME280;6953;48.810;9.204;2023-05-17T10:49:01;99474.00;;;25.72;26.03
13765;BME280;6953;48.810;9.204;2023-05-17T10:51:32;99276.91;;;23.99;26.40
13765;BME280;6953;48.810;9.204;2023-05-17T10:54:14;99437.97;;;24.78;27.11
13765;BME280;6953;48.810;9.204;2023-05-17T10:56:50;99437.41;;;24.57;27.37
13765;BME280;6953;48.810;9.204;2023-05-17T10:59:34;99462.44;;;24.12;27.89
13765;BME280;6953;48.810;9.204;2023-05-17T11:02:07;99249.84;;;23.29;27.79
13765;BME280;6953;48.810;9.204;2023-05-17T11:04:40;99256.22;;;23.00;27.08
13765;BME280;6953;48.810;9.204;2023-05-17T11:09:50;99428.72;;;23.44;28.17
13765;BME280;6953;48.810;9.204;2023-05-17T11:12:29;99370.66;;;22.98;29.05
13765;BME280;6953;48.810;9.204;2023-05-17T11:14:55;99209.94;;;21.95;29.48
13765;BME280;6953;48.810;9.204;2023-05-17T11:17:24;99430.84;;;23.03;30.10
13765;BME280;6953;48.810;9.204;2023-05-17T11:22:23;99435.50;;;22.43;31.12
13765;BME280;6953;48.810;9.204;2023-05-17T11:24:50;99429.81;;;21.97;32.35
13765;BME280;6953;48.810;9.204;2023-05-17T11:27:18;99174.16;;;20.07;33.30
13765;BME280;6953;48.810;9.204;2023-05-17T11:29:47;99421.69;;;21.17;34.04
13765;BME280;6953;48.810;9.204;2023-05-17T11:32:14;99401.25;;;20.64;35.31
13765;BME280;6953;48.810;9.204;2023-05-17T11:34:39;99420.47;;;20.25;36.39
13765;BME280;6953;48.810;9.204;2023-05-17T11:37:10;99170.69;;;18.66;37.68
13765;BME280;6953;48.810;9.204;2023-05-17T11:39:36;99202.84;;;18.74;37.98
13765;BME280;6953;48.810;9.204;2023-05-17T11:42:01;99259.19;;;18.90;37.80
13765;BME280;6953;48.810;9.204;2023-05-17T11:44:31;99190.50;;;18.62;37.34
13765;BME280;6953;48.810;9.204;2023-05-17T11:47:06;99448.22;;;20.12;37.29
13765;BME280;6953;48.810;9.204;2023-05-17T11:49:37;99358.25;;;19.93;36.10
13765;BME280;6953;48.810;9.204;2023-05-17T11:52:06;99432.03;;;20.68;36.38
13765;BME280;6953;48.810;9.204;2023-05-17T11:54:32;99421.25;;;20.81;35.39
13765;BME280;6953;48.810;9.204;2023-05-17T11:56:59;99430.63;;;20.96;35.48
13765;BME280;6953;48.810;9.204;2023-05-17T11:59:26;99432.41;;;21.06;35.04
13765;BME280;6953;48.810;9.204;2023-05-17T12:01:51;99405.41;;;20.46;34.67
13765;BME280;6953;48.810;9.204;2023-05-17T12:04:24;99428.56;;;20.99;34.59
13765;BME280;6953;48.810;9.204;2023-05-17T12:06:51;99436.09;;;21.25;34.27
13765;BME280;6953;48.810;9.204;2023-05-17T12:09:17;99432.75;;;21.53;33.75
13765;BME280;6953;48.810;9.204;2023-05-17T12:11:42;99212.31;;;20.49;33.64
13765;BME280;6953;48.810;9.204;2023-05-17T12:14:08;99440.50;;;21.97;32.70
13765;BME280;6953;48.810;9.204;2023-05-17T12:16:35;99466.91;;;21.91;32.91
13765;BME280;6953;48.810;9.204;2023-05-17T12:19:01;99376.81;;;21.52;32.31
13765;BME280;6953;48.810;9.204;2023-05-17T12:21:26;99435.09;;;22.08;32.92
13765;BME280;6953;48.810;9.204;2023-05-17T12:23:52;99419.56;;;22.32;32.21
13765;BME280;6953;48.810;9.204;2023-05-17T12:26:19;99433.38;;;23.05;30.95
13765;BME280;6953;48.810;9.204;2023-05-17T12:28:56;99432.22;;;23.64;29.31
13765;BME280;6953;48.810;9.204;2023-05-17T12:31:33;99266.81;;;23.11;28.62
13765;BME280;6953;48.810;9.204;2023-05-17T12:34:01;99439.66;;;24.79;28.43
13765;BME280;6953;48.810;9.204;2023-05-17T12:36:27;99342.72;;;24.99;27.84
13765;BME280;6953;48.810;9.204;2023-05-17T12:38:54;99433.75;;;26.05;27.24
13765;BME280;6953;48.810;9.204;2023-05-17T12:41:20;99239.78;;;24.73;26.52
13765;BME280;6953;48.810;9.204;2023-05-17T12:43:47;99440.66;;;26.41;25.67
13765;BME280;6953;48.810;9.204;2023-05-17T12:46:15;99437.22;;;26.23;26.00
13765;BME280;6953;48.810;9.204;2023-05-17T12:48:45;99380.19;;;25.18;26.22
13765;BME280;6953;48.810;9.204;2023-05-17T12:51:12;99438.47;;;24.91;27.78
13765;BME280;6953;48.810;9.204;2023-05-17T12:53:42;99432.09;;;24.47;28.46
13765;BME280;6953;48.810;9.204;2023-05-17T12:56:14;99419.28;;;24.05;29.23
13765;BME280;6953;48.810;9.204;2023-05-17T12:58:39;99428.22;;;23.87;29.87
13765;BME280;6953;48.810;9.204;2023-05-17T13:01:05;99361.75;;;23.44;29.94
13765;BME280;6953;48.810;9.204;2023-05-17T13:03:38;99389.28;;;23.92;29.34
13765;BME280;6953;48.810;9.204;2023-05-17T13:06:06;99350.31;;;23.98;29.16
13765;BME280;6953;48.810;9.204;2023-05-17T13:08:33;99356.16;;;24.37;28.98
13765;BME280;6953;48.810;9.204;2023-05-17T13:11:12;99418.25;;;25.14;28.64
13765;BME280;6953;48.810;9.204;2023-05-17T13:13:38;99419.53;;;25.10;28.44
13765;BME280;6953;48.810;9.204;2023-05-17T13:16:03;99221.56;;;23.53;28.90
13765;BME280;6953;48.810;9.204;2023-05-17T13:18:29;99424.63;;;24.41;28.95
13765;BME280;6953;48.810;9.204;2023-05-17T13:20:59;99420.53;;;24.37;29.20